sensor_id;sensor_type;location;lat;lon;timestamp;temperature;humidity
15413;DHT22;7805;49.554;7.632;2022-08-19T00:00:16;21.50;99.90
15413;DHT22;7805;49.554;7.632;2022-08-19T00:02:42;21.20;99.90
15413;DHT22;7805;49.554;7.632;2022-08-19T00:05:09;21.20;99.90
15413;DHT22;7805;49.554;7.632;2022-08-19T00:07:36;21.20;99.90
15413;DHT22;7805;49.554;7.632;2022-08-19T00:10:04;21.70;99.90
15413;DHT22;7805;49.554;7.632;2022-08-19T00:12:30;21.20;99.90
15413;DHT22;7805;49.554;7.632;2022-08-19T00:14:56;21.20;99.90
15413;DHT22;7805;49.554;7.632;2022-08-19T00:17:21;21.10;99.90
15413;DHT22;7805;49.554;7.632;2022-08-19T00:19:47;21.10;99.90
15413;DHT22;7805;49.554;7.632;2022-08-19T00:22:13;21.10;99.90
15413;DHT22;7805;49.554;7.632;2022-08-19T00:24:39;21.10;99.90
15413;DHT22;7805;49.554;7.632;2022-08-19T00:27:06;21.10;99.90
15413;DHT22;7805;49.554;7.632;2022-08-19T00:29:32;21.20;99.90
15413;DHT22;7805;49.554;7.632;2022-08-19T00:31:57;21.10;99.90
15413;DHT22;7805;49.554;7.632;2022-08-19T00:34:25;21.20;99.90
15413;DHT22;7805;49.554;7.632;2022-08-19T00:36:53;21.10;99.90
15413;DHT22;7805;49.554;7.632;2022-08-19T00:39:19;21.20;99.90
15413;DHT22;7805;49.554;7.632;2022-08-19T00:41:45;21.10;99.90
15413;DHT22;7805;49.554;7.632;2022-08-19T00:44:17;21.00;99.90
15413;DHT22;7805;49.554;7.632;2022-08-19T00:46:49;20.90;99.90
15413;DHT22;7805;49.554;7.632;2022-08-19T00:49:20;20.90;99.90
15413;DHT22;7805;49.554;7.632;2022-08-19T00:51:51;20.90;99.90
15413;DHT22;7805;49.554;7.632;2022-08-19T00:54:18;20.90;99.90
15413;DHT22;7805;49.554;7.632;2022-08-19T00:56:44;20.90;99.90
15413;DHT22;7805;49.554;7.632;2022-08-19T00:59:11;21.00;99.90
15413;DHT22;7805;49.554;7.632;2022-08-19T01:01:39;21.00;99.90
15413;DHT22;7805;49.554;7.632;2022-08-19T01:04:06;20.90;99.90
15413;DHT22;7805;49.554;7.632;2022-08-19T01:06:32;22.10;99.90
15413;DHT22;7805;49.554;7.632;2022-08-19T01:08:59;20.90;99.90
15413;DHT22;7805;49.554;7.632;2022-08-19T01:11:27;20.90;99.90
15413;DHT22;7805;49.554;7.632;2022-08-19T01:13:53;20.90;99.90
15413;DHT22;7805;49.554;7.632;2022-08-19T01:16:22;21.00;99.90
15413;DHT22;7805;49.554;7.632;2022-08-19T01:18:49;21.00;99.90
15413;DHT22;7805;49.554;7.632;2022-08-19T01:21:44;21.00;99.90
15413;DHT22;7805;49.554;7.632;2022-08-19T01:24:12;21.00;99.90
15413;DHT22;7805;49.554;7.632;2022-08-19T01:26:40;21.00;99.90
15413;DHT22;7805;49.554;7.632;2022-08-19T01:29:08;21.00;99.90
15413;DHT22;7805;49.554;7.632;2022-08-19T01:31:34;21.00;99.90
15413;DHT22;7805;49.554;7.632;2022-08-19T01:34:01;20.90;99.90
15413;DHT22;7805;49.554;7.632;2022-08-19T01:38:59;18.80;99.90
15413;DHT22;7805;49.554;7.632;2022-08-19T01:41:25;20.90;99.90
15413;DHT22;7805;49.554;7.632;2022-08-19T01:43:52;20.90;99.90
15413;DHT22;7805;49.554;7.632;2022-08-19T01:46:18;20.90;99.90
15413;DHT22;7805;49.554;7.632;2022-08-19T01:48:45;20.90;99.90
15413;DHT22;7805;49.554;7.632;2022-08-19T01:51:12;20.90;99.90
15413;DHT22;7805;49.554;7.632;2022-08-19T01:53:38;20.90;99.90
15413;DHT22;7805;49.554;7.632;2022-08-19T01:56:05;20.90;99.90
15413;DHT22;7805;49.554;7.632;2022-08-19T01:58:41;21.00;99.90
15413;DHT22;7805;49.554;7.632;2022-08-19T02:01:11;21.00;99.90
15413;DHT22;7805;49.554;7.632;2022-08-19T02:03:37;21.00;99.90
15413;DHT22;7805;49.554;7.632;2022-08-19T02:06:03;21.00;99.90
15413;DHT22;7805;49.554;7.632;2022-08-19T02:08:32;21.00;99.90
15413;DHT22;7805;49.554;7.632;2022-08-19T02:10:58;19.70;99.90
15413;DHT22;7805;49.554;7.632;2022-08-19T02:13:24;21.00;99.90
15413;DHT22;7805;49.554;7.632;2022-08-19T02:15:51;21.00;99.90
15413;DHT22;7805;49.554;7.632;2022-08-19T02:18:17;20.90;99.90
15413;DHT22;7805;49.554;7.632;2022-08-19T02:20:43;20.90;99.90
15413;DHT22;7805;49.554;7.632;2022-08-19T02:23:10;20.90;99.90
15413;DHT22;7805;49.554;7.632;2022-08-19T02:25:36;20.90;99.90
15413;DHT22;7805;49.554;7.632;2022-08-19T02:28:02;20.90;99.90
15413;DHT22;7805;49.554;7.632;2022-08-19T02:30:28;20.80;99.90
15413;DHT22;7805;49.554;7.632;2022-08-19T02:32:54;20.70;99.90
15413;DHT22;7805;49.554;7.632;2022-08-19T02:35:19;20.60;99.90
15413;DHT22;7805;49.554;7.632;2022-08-19T02:37:45;20.60;99.90
15413;DHT22;7805;49.554;7.632;2022-08-19T02:40:31;20.60;99.90
15413;DHT22;7805;49.554;7.632;2022-08-19T02:43:01;19.80;99.90
15413;DHT22;7805;49.554;7.632;2022-08-19T02:45:32;20.70;99.90
15413;DHT22;7805;49.554;7.632;2022-08-19T02:47:58;20.70;99.90
15413;DHT22;7805;49.554;7.632;2022-08-19T02:50:24;20.70;99.90
15413;DHT22;7805;49.554;7.632;2022-08-19T02:52:49;20.70;99.90
15413;DHT22;7805;49.554;7.632;2022-08-19T02:55:15;20.60;99.90
15413;DHT22;7805;49.554;7.632;2022-08-19T02:57:40;20.60;99.90
15413;DHT22;7805;49.554;7.632;2022-08-19T03:00:08;20.60;99.90
15413;DHT22;7805;49.554;7.632;2022-08-19T03:02:36;20.60;99.90
15413;DHT22;7805;49.554;7.632;2022-08-19T03:05:03;20.50;99.90
15413;DHT22;7805;49.554;7.632;2022-08-19T03:07:29;20.60;99.90
15413;DHT22;7805;49.554;7.632;2022-08-19T03:09:56;20.50;99.90
15413;DHT22;7805;49.554;7.632;2022-08-19T03:12:21;20.50;99.90
15413;DHT22;7805;49.554;7.632;2022-08-19T03:14:47;20.40;99.90
15413;DHT22;7805;49.554;7.632;2022-08-19T03:17:13;20.30;99.90
15413;DHT22;7805;49.554;7.632;2022-08-19T03:19:39;20.30;99.90
15413;DHT22;7805;49.554;7.632;2022-08-19T03:22:05;20.30;99.90
15413;DHT22;7805;49.554;7.632;2022-08-19T03:24:31;20.30;99.90
15413;DHT22;7805;49.554;7.632;2022-08-19T03:26:57;20.20;99.90
15413;DHT22;7805;49.554;7.632;2022-08-19T03:29:28;20.20;99.90
15413;DHT22;7805;49.554;7.632;2022-08-19T03:31:58;20.10;99.90
15413;DHT22;7805;49.554;7.632;2022-08-19T03:34:28;20.10;99.90
15413;DHT22;7805;49.554;7.632;2022-08-19T03:36:55;20.10;99.90
15413;DHT22;7805;49.554;7.632;2022-08-19T03:39:22;20.00;99.90
15413;DHT22;7805;49.554;7.632;2022-08-19T03:41:51;20.00;99.90
15413;DHT22;7805;49.554;7.632;2022-08-19T03:44:19;20.10;99.90
15413;DHT22;7805;49.554;7.632;2022-08-19T03:46:50;20.10;99.90
15413;DHT22;7805;49.554;7.632;2022-08-19T03:49:17;20.00;99.90
15413;DHT22;7805;49.554;7.632;2022-08-19T03:51:43;20.00;99.90
15413;DHT22;7805;49.554;7.632;2022-08-19T03:54:11;20.00;99.90
15413;DHT22;7805;49.554;7.632;2022-08-19T03:56:39;20.00;99.90
15413;DHT22;7805;49.554;7.632;2022-08-19T03:59:07;19.90;99.90
15413;DHT22;7805;49.554;7.632;2022-08-19T04:01:34;20.00;99.90
15413;DHT22;7805;49.554;7.632;2022-08-19T04:04:00;19.90;99.90
15413;DHT22;7805;49.554;7.632;2022-08-19T04:06:29;19.90;99.90
15413;DHT22;7805;49.554;7.632;2022-08-19T04:08:57;19.80;99.90
15413;DHT22;7805;49.554;7.632;2022-08-19T04:11:29;19.80;99.90
15413;DHT22;7805;49.554;7.632;2022-08-19T04:13:55;19.80;99.90
15413;DHT22;7805;49.554;7.632;2022-08-19T04:16:23;19.80;99.90
15413;DHT22;7805;49.554;7.632;2022-08-19T04:18:49;19.70;99.90
15413;DHT22;7805;49.554;7.632;2022-08-19T04:21:17;19.70;99.90
15413;DHT22;7805;49.554;7.632;2022-08-19T04:23:44;19.70;99.90
15413;DHT22;7805;49.554;7.632;2022-08-19T04:26:28;19.60;99.90
15413;DHT22;7805;49.554;7.632;2022-08-19T04:28:58;19.60;99.90
15413;DHT22;7805;49.554;7.632;2022-08-19T04:31:28;19.50;99.90
15413;DHT22;7805;49.554;7.632;2022-08-19T04:33:59;19.50;99.90
15413;DHT22;7805;49.554;7.632;2022-08-19T04:36:28;19.50;99.90
15413;DHT22;7805;49.554;7.632;2022-08-19T04:38:56;19.50;99.90
15413;DHT22;7805;49.554;7.632;2022-08-19T04:41:26;19.50;99.90
15413;DHT22;7805;49.554;7.632;2022-08-19T04:44:11;19.40;99.90
15413;DHT22;7805;49.554;7.632;2022-08-19T04:46:37;19.40;99.90
15413;DHT22;7805;49.554;7.632;2022-08-19T04:49:04;19.40;99.90
15413;DHT22;7805;49.554;7.632;2022-08-19T04:51:32;19.40;99.90
15413;DHT22;7805;49.554;7.632;2022-08-19T04:53:58;19.30;99.90
15413;DHT22;7805;49.554;7.632;2022-08-19T04:56:25;19.40;99.90
15413;DHT22;7805;49.554;7.632;2022-08-19T04:58:53;19.30;99.90
15413;DHT22;7805;49.554;7.632;2022-08-19T05:01:26;19.30;99.90
15413;DHT22;7805;49.554;7.632;2022-08-19T05:03:53;19.40;99.90
15413;DHT22;7805;49.554;7.632;2022-08-19T05:06:21;19.30;99.90
15413;DHT22;7805;49.554;7.632;2022-08-19T05:08:47;19.40;99.90
15413;DHT22;7805;49.554;7.632;2022-08-19T05:11:20;19.30;99.90
15413;DHT22;7805;49.554;7.632;2022-08-19T05:13:47;19.30;99.90
15413;DHT22;7805;49.554;7.632;2022-08-19T05:16:14;19.20;99.90
15413;DHT22;7805;49.554;7.632;2022-08-19T05:18:40;19.20;99.90
15413;DHT22;7805;49.554;7.632;2022-08-19T05:21:26;19.20;99.90
15413;DHT22;7805;49.554;7.632;2022-08-19T05:24:10;19.10;99.90
15413;DHT22;7805;49.554;7.632;2022-08-19T05:26:37;19.10;99.90
15413;DHT22;7805;49.554;7.632;2022-08-19T05:29:03;19.30;99.90
15413;DHT22;7805;49.554;7.632;2022-08-19T05:31:29;19.20;99.90
15413;DHT22;7805;49.554;7.632;2022-08-19T05:33:55;19.20;99.90
15413;DHT22;7805;49.554;7.632;2022-08-19T05:36:21;19.20;99.90
15413;DHT22;7805;49.554;7.632;2022-08-19T05:38:46;19.30;99.90
15413;DHT22;7805;49.554;7.632;2022-08-19T05:41:14;19.40;99.90
15413;DHT22;7805;49.554;7.632;2022-08-19T05:43:40;19.50;99.90
15413;DHT22;7805;49.554;7.632;2022-08-19T05:46:06;19.50;99.90
15413;DHT22;7805;49.554;7.632;2022-08-19T05:48:35;19.60;99.90
15413;DHT22;7805;49.554;7.632;2022-08-19T05:51:07;19.70;99.90
15413;DHT22;7805;49.554;7.632;2022-08-19T05:53:35;19.80;99.90
15413;DHT22;7805;49.554;7.632;2022-08-19T05:56:09;19.80;99.90
15413;DHT22;7805;49.554;7.632;2022-08-19T05:58:36;19.90;99.90
15413;DHT22;7805;49.554;7.632;2022-08-19T06:01:02;20.00;99.90
15413;DHT22;7805;49.554;7.632;2022-08-19T06:03:33;20.10;99.90
15413;DHT22;7805;49.554;7.632;2022-08-19T06:05:59;20.20;99.90
15413;DHT22;7805;49.554;7.632;2022-08-19T06:08:26;20.30;99.90
15413;DHT22;7805;49.554;7.632;2022-08-19T06:10:53;20.50;99.90
15413;DHT22;7805;49.554;7.632;2022-08-19T06:13:18;20.70;99.90
15413;DHT22;7805;49.554;7.632;2022-08-19T06:15:45;20.80;99.90
15413;DHT22;7805;49.554;7.632;2022-08-19T06:18:13;21.10;99.90
15413;DHT22;7805;49.554;7.632;2022-08-19T06:20:39;21.20;99.90
15413;DHT22;7805;49.554;7.632;2022-08-19T06:23:04;21.50;99.90
15413;DHT22;7805;49.554;7.632;2022-08-19T06:25:30;21.60;99.90
15413;DHT22;7805;49.554;7.632;2022-08-19T06:27:56;21.80;99.90
15413;DHT22;7805;49.554;7.632;2022-08-19T06:30:21;22.10;99.90
15413;DHT22;7805;49.554;7.632;2022-08-19T06:32:47;22.30;99.90
15413;DHT22;7805;49.554;7.632;2022-08-19T06:35:12;22.50;99.90
15413;DHT22;7805;49.554;7.632;2022-08-19T06:37:40;22.70;99.90
15413;DHT22;7805;49.554;7.632;2022-08-19T06:40:07;23.00;99.90
15413;DHT22;7805;49.554;7.632;2022-08-19T06:42:34;23.30;99.90
15413;DHT22;7805;49.554;7.632;2022-08-19T06:45:00;23.50;99.90
15413;DHT22;7805;49.554;7.632;2022-08-19T06:47:28;23.80;99.90
15413;DHT22;7805;49.554;7.632;2022-08-19T06:49:58;23.90;99.90
15413;DHT22;7805;49.554;7.632;2022-08-19T06:52:32;23.90;99.90
15413;DHT22;7805;49.554;7.632;2022-08-19T06:54:58;23.90;99.90
15413;DHT22;7805;49.554;7.632;2022-08-19T06:57:25;23.90;99.90
15413;DHT22;7805;49.554;7.632;2022-08-19T06:59:51;23.90;99.90
15413;DHT22;7805;49.554;7.632;2022-08-19T07:02:18;24.00;99.90
15413;DHT22;7805;49.554;7.632;2022-08-19T07:04:44;24.20;99.90
15413;DHT22;7805;49.554;7.632;2022-08-19T07:07:12;24.30;99.90
15413;DHT22;7805;49.554;7.632;2022-08-19T07:09:41;24.60;99.90
15413;DHT22;7805;49.554;7.632;2022-08-19T07:12:12;24.80;99.90
15413;DHT22;7805;49.554;7.632;2022-08-19T07:14:39;24.90;99.90
15413;DHT22;7805;49.554;7.632;2022-08-19T07:17:10;24.80;99.90
15413;DHT22;7805;49.554;7.632;2022-08-19T07:19:37;24.70;99.90
15413;DHT22;7805;49.554;7.632;2022-08-19T07:22:05;24.90;99.90
15413;DHT22;7805;49.554;7.632;2022-08-19T07:24:33;25.10;99.90
15413;DHT22;7805;49.554;7.632;2022-08-19T07:27:01;25.20;99.90
15413;DHT22;7805;49.554;7.632;2022-08-19T07:29:29;25.20;99.90
15413;DHT22;7805;49.554;7.632;2022-08-19T07:31:58;25.10;99.90
15413;DHT22;7805;49.554;7.632;2022-08-19T07:34:25;24.90;99.90
15413;DHT22;7805;49.554;7.632;2022-08-19T07:36:52;24.80;99.90
15413;DHT22;7805;49.554;7.632;2022-08-19T07:39:25;24.80;99.90
15413;DHT22;7805;49.554;7.632;2022-08-19T07:41:51;24.80;99.90
15413;DHT22;7805;49.554;7.632;2022-08-19T07:44:18;24.70;99.90
15413;DHT22;7805;49.554;7.632;2022-08-19T07:46:47;24.90;99.90
15413;DHT22;7805;49.554;7.632;2022-08-19T07:49:15;25.00;99.90
15413;DHT22;7805;49.554;7.632;2022-08-19T07:51:56;24.70;99.90
15413;DHT22;7805;49.554;7.632;2022-08-19T07:54:23;24.80;99.90
15413;DHT22;7805;49.554;7.632;2022-08-19T07:56:50;24.90;99.90
15413;DHT22;7805;49.554;7.632;2022-08-19T07:59:17;25.10;99.90
15413;DHT22;7805;49.554;7.632;2022-08-19T08:01:44;25.10;99.90
15413;DHT22;7805;49.554;7.632;2022-08-19T08:04:09;25.20;99.90
15413;DHT22;7805;49.554;7.632;2022-08-19T08:06:54;25.10;99.90
15413;DHT22;7805;49.554;7.632;2022-08-19T08:09:40;25.20;99.90
15413;DHT22;7805;49.554;7.632;2022-08-19T08:12:22;25.30;99.90
15413;DHT22;7805;49.554;7.632;2022-08-19T08:14:52;25.40;99.90
15413;DHT22;7805;49.554;7.632;2022-08-19T08:17:20;25.80;99.90
15413;DHT22;7805;49.554;7.632;2022-08-19T08:19:46;26.00;99.60
15413;DHT22;7805;49.554;7.632;2022-08-19T08:22:15;26.30;99.80
15413;DHT22;7805;49.554;7.632;2022-08-19T08:25:12;28.80;99.90
15413;DHT22;7805;49.554;7.632;2022-08-19T08:27:43;27.10;98.50
15413;DHT22;7805;49.554;7.632;2022-08-19T08:30:14;27.10;98.50
15413;DHT22;7805;49.554;7.632;2022-08-19T08:32:41;27.30;98.30
15413;DHT22;7805;49.554;7.632;2022-08-19T08:35:10;27.30;97.70
15413;DHT22;7805;49.554;7.632;2022-08-19T08:37:37;27.20;97.30
15413;DHT22;7805;49.554;7.632;2022-08-19T08:40:06;27.20;97.30
15413;DHT22;7805;49.554;7.632;2022-08-19T08:42:36;27.20;97.30
15413;DHT22;7805;49.554;7.632;2022-08-19T08:45:12;27.10;97.10
15413;DHT22;7805;49.554;7.632;2022-08-19T08:47:43;27.20;97.10
15413;DHT22;7805;49.554;7.632;2022-08-19T08:50:37;26.70;97.10
15413;DHT22;7805;49.554;7.632;2022-08-19T08:53:06;26.80;96.70
15413;DHT22;7805;49.554;7.632;2022-08-19T08:55:33;27.00;96.60
15413;DHT22;7805;49.554;7.632;2022-08-19T08:58:06;27.00;95.40
15413;DHT22;7805;49.554;7.632;2022-08-19T09:00:36;27.20;96.00
15413;DHT22;7805;49.554;7.632;2022-08-19T09:03:03;27.30;95.20
15413;DHT22;7805;49.554;7.632;2022-08-19T09:08:43;27.50;94.00
15413;DHT22;7805;49.554;7.632;2022-08-19T09:11:17;27.90;94.60
15413;DHT22;7805;49.554;7.632;2022-08-19T09:16:46;28.20;93.40
15413;DHT22;7805;49.554;7.632;2022-08-19T09:19:13;28.20;93.50
15413;DHT22;7805;49.554;7.632;2022-08-19T09:21:39;28.30;93.10
15413;DHT22;7805;49.554;7.632;2022-08-19T09:24:05;28.50;93.30
15413;DHT22;7805;49.554;7.632;2022-08-19T09:26:32;28.60;92.80
15413;DHT22;7805;49.554;7.632;2022-08-19T09:28:58;28.50;92.40
15413;DHT22;7805;49.554;7.632;2022-08-19T09:31:27;28.40;92.30
15413;DHT22;7805;49.554;7.632;2022-08-19T09:33:53;28.50;92.20
15413;DHT22;7805;49.554;7.632;2022-08-19T09:36:23;28.70;92.50
15413;DHT22;7805;49.554;7.632;2022-08-19T09:38:50;29.10;92.10
15413;DHT22;7805;49.554;7.632;2022-08-19T09:41:19;29.00;91.70
15413;DHT22;7805;49.554;7.632;2022-08-19T09:43:48;29.10;91.70
15413;DHT22;7805;49.554;7.632;2022-08-19T09:46:18;29.00;90.60
15413;DHT22;7805;49.554;7.632;2022-08-19T09:48:45;28.90;90.90
15413;DHT22;7805;49.554;7.632;2022-08-19T09:51:14;29.00;91.00
15413;DHT22;7805;49.554;7.632;2022-08-19T09:53:44;28.90;90.90
15413;DHT22;7805;49.554;7.632;2022-08-19T09:56:09;29.00;90.50
15413;DHT22;7805;49.554;7.632;2022-08-19T09:58:36;29.10;90.40
15413;DHT22;7805;49.554;7.632;2022-08-19T10:01:02;29.10;90.10
15413;DHT22;7805;49.554;7.632;2022-08-19T10:03:30;29.20;89.20
15413;DHT22;7805;49.554;7.632;2022-08-19T10:05:57;29.20;87.00
15413;DHT22;7805;49.554;7.632;2022-08-19T10:08:27;29.30;88.60
15413;DHT22;7805;49.554;7.632;2022-08-19T10:10:54;29.60;84.90
15413;DHT22;7805;49.554;7.632;2022-08-19T10:13:23;29.60;85.30
15413;DHT22;7805;49.554;7.632;2022-08-19T10:15:55;29.90;85.60
15413;DHT22;7805;49.554;7.632;2022-08-19T10:18:22;30.00;82.80
15413;DHT22;7805;49.554;7.632;2022-08-19T10:20:50;29.80;81.40
15413;DHT22;7805;49.554;7.632;2022-08-19T10:23:16;29.90;81.50
15413;DHT22;7805;49.554;7.632;2022-08-19T10:25:43;29.70;80.50
15413;DHT22;7805;49.554;7.632;2022-08-19T10:28:09;29.80;81.90
15413;DHT22;7805;49.554;7.632;2022-08-19T10:30:40;30.00;78.10
15413;DHT22;7805;49.554;7.632;2022-08-19T10:33:07;30.20;77.50
15413;DHT22;7805;49.554;7.632;2022-08-19T10:35:32;30.60;76.60
15413;DHT22;7805;49.554;7.632;2022-08-19T10:37:58;30.70;75.30
15413;DHT22;7805;49.554;7.632;2022-08-19T10:40:26;30.60;75.60
15413;DHT22;7805;49.554;7.632;2022-08-19T10:42:52;30.40;73.70
15413;DHT22;7805;49.554;7.632;2022-08-19T10:45:18;31.60;74.10
15413;DHT22;7805;49.554;7.632;2022-08-19T10:47:44;29.60;74.60
15413;DHT22;7805;49.554;7.632;2022-08-19T10:50:10;29.90;76.40
15413;DHT22;7805;49.554;7.632;2022-08-19T10:52:54;30.20;74.10
15413;DHT22;7805;49.554;7.632;2022-08-19T10:55:21;30.40;70.70
15413;DHT22;7805;49.554;7.632;2022-08-19T10:58:11;30.70;71.60
15413;DHT22;7805;49.554;7.632;2022-08-19T11:00:36;31.20;69.70
15413;DHT22;7805;49.554;7.632;2022-08-19T11:03:02;31.30;69.10
15413;DHT22;7805;49.554;7.632;2022-08-19T11:05:28;31.20;68.20
15413;DHT22;7805;49.554;7.632;2022-08-19T11:07:53;31.60;69.40
15413;DHT22;7805;49.554;7.632;2022-08-19T11:10:19;31.90;68.50
15413;DHT22;7805;49.554;7.632;2022-08-19T11:12:45;32.30;67.90
15413;DHT22;7805;49.554;7.632;2022-08-19T11:15:11;31.90;64.20
15413;DHT22;7805;49.554;7.632;2022-08-19T11:17:38;31.40;65.70
15413;DHT22;7805;49.554;7.632;2022-08-19T11:20:12;31.00;66.40
15413;DHT22;7805;49.554;7.632;2022-08-19T11:22:38;30.60;67.20
15413;DHT22;7805;49.554;7.632;2022-08-19T11:25:06;30.80;67.60
15413;DHT22;7805;49.554;7.632;2022-08-19T11:27:32;30.80;65.50
15413;DHT22;7805;49.554;7.632;2022-08-19T11:29:59;30.80;66.70
15413;DHT22;7805;49.554;7.632;2022-08-19T11:32:24;31.10;67.20
15413;DHT22;7805;49.554;7.632;2022-08-19T11:34:50;31.40;67.40
15413;DHT22;7805;49.554;7.632;2022-08-19T11:37:15;31.40;65.30
15413;DHT22;7805;49.554;7.632;2022-08-19T11:39:41;31.00;65.30
15413;DHT22;7805;49.554;7.632;2022-08-19T11:42:07;31.20;65.70
15413;DHT22;7805;49.554;7.632;2022-08-19T11:44:53;31.10;64.50
15413;DHT22;7805;49.554;7.632;2022-08-19T11:47:18;31.10;65.80
15413;DHT22;7805;49.554;7.632;2022-08-19T11:49:46;31.40;65.90
15413;DHT22;7805;49.554;7.632;2022-08-19T11:52:12;31.70;63.90
15413;DHT22;7805;49.554;7.632;2022-08-19T11:54:37;31.80;62.50
15413;DHT22;7805;49.554;7.632;2022-08-19T11:57:03;31.60;62.00
15413;DHT22;7805;49.554;7.632;2022-08-19T11:59:29;31.40;61.80
15413;DHT22;7805;49.554;7.632;2022-08-19T12:01:55;31.00;62.10
15413;DHT22;7805;49.554;7.632;2022-08-19T12:04:21;30.80;63.40
15413;DHT22;7805;49.554;7.632;2022-08-19T12:06:47;30.70;63.90
15413;DHT22;7805;49.554;7.632;2022-08-19T12:09:12;30.70;63.80
15413;DHT22;7805;49.554;7.632;2022-08-19T12:11:39;30.50;63.50
15413;DHT22;7805;49.554;7.632;2022-08-19T12:14:06;30.60;63.60
15413;DHT22;7805;49.554;7.632;2022-08-19T12:16:32;30.90;62.50
15413;DHT22;7805;49.554;7.632;2022-08-19T12:18:58;31.40;62.80
15413;DHT22;7805;49.554;7.632;2022-08-19T12:21:28;31.20;60.80
15413;DHT22;7805;49.554;7.632;2022-08-19T12:23:56;31.60;59.00
15413;DHT22;7805;49.554;7.632;2022-08-19T12:26:24;31.40;61.60
15413;DHT22;7805;49.554;7.632;2022-08-19T12:28:50;31.60;60.80
15413;DHT22;7805;49.554;7.632;2022-08-19T12:31:16;32.90;60.90
15413;DHT22;7805;49.554;7.632;2022-08-19T12:33:42;30.90;60.40
15413;DHT22;7805;49.554;7.632;2022-08-19T12:36:11;31.00;61.30
15413;DHT22;7805;49.554;7.632;2022-08-19T12:38:37;31.50;61.60
15413;DHT22;7805;49.554;7.632;2022-08-19T12:41:04;32.00;59.90
15413;DHT22;7805;49.554;7.632;2022-08-19T12:43:32;32.00;59.80
15413;DHT22;7805;49.554;7.632;2022-08-19T12:45:57;32.10;59.60
15413;DHT22;7805;49.554;7.632;2022-08-19T12:48:23;32.20;58.40
15413;DHT22;7805;49.554;7.632;2022-08-19T12:50:49;31.60;58.30
15413;DHT22;7805;49.554;7.632;2022-08-19T12:53:14;31.50;58.70
15413;DHT22;7805;49.554;7.632;2022-08-19T12:55:41;31.70;59.10
15413;DHT22;7805;49.554;7.632;2022-08-19T12:58:07;31.70;59.00
15413;DHT22;7805;49.554;7.632;2022-08-19T13:00:33;31.80;59.10
15413;DHT22;7805;49.554;7.632;2022-08-19T13:02:59;31.80;59.10
15413;DHT22;7805;49.554;7.632;2022-08-19T13:05:30;31.30;58.60
15413;DHT22;7805;49.554;7.632;2022-08-19T13:07:58;31.00;59.50
15413;DHT22;7805;49.554;7.632;2022-08-19T13:10:28;31.00;60.10
15413;DHT22;7805;49.554;7.632;2022-08-19T13:12:54;31.00;60.00
15413;DHT22;7805;49.554;7.632;2022-08-19T13:15:21;31.50;60.70
15413;DHT22;7805;49.554;7.632;2022-08-19T13:17:48;32.10;59.30
15413;DHT22;7805;49.554;7.632;2022-08-19T13:20:16;32.60;58.20
15413;DHT22;7805;49.554;7.632;2022-08-19T13:22:42;33.00;56.40
15413;DHT22;7805;49.554;7.632;2022-08-19T13:25:10;33.00;54.40
15413;DHT22;7805;49.554;7.632;2022-08-19T13:27:36;33.10;54.70
15413;DHT22;7805;49.554;7.632;2022-08-19T13:30:03;33.10;54.00
15413;DHT22;7805;49.554;7.632;2022-08-19T13:32:48;33.10;53.50
15413;DHT22;7805;49.554;7.632;2022-08-19T13:35:32;32.40;53.10
15413;DHT22;7805;49.554;7.632;2022-08-19T13:37:57;32.10;53.90
15413;DHT22;7805;49.554;7.632;2022-08-19T13:40:24;31.70;53.80
15413;DHT22;7805;49.554;7.632;2022-08-19T13:42:53;31.30;54.90
15413;DHT22;7805;49.554;7.632;2022-08-19T13:45:21;31.50;54.90
15413;DHT22;7805;49.554;7.632;2022-08-19T13:47:49;31.40;55.10
15413;DHT22;7805;49.554;7.632;2022-08-19T13:50:17;30.20;54.40
15413;DHT22;7805;49.554;7.632;2022-08-19T13:52:44;31.10;55.50
15413;DHT22;7805;49.554;7.632;2022-08-19T13:55:11;31.30;55.10
15413;DHT22;7805;49.554;7.632;2022-08-19T13:57:37;31.40;53.50
15413;DHT22;7805;49.554;7.632;2022-08-19T14:00:10;31.40;53.60
15413;DHT22;7805;49.554;7.632;2022-08-19T14:02:37;30.80;54.70
15413;DHT22;7805;49.554;7.632;2022-08-19T14:05:05;30.40;55.30
15413;DHT22;7805;49.554;7.632;2022-08-19T14:07:31;30.70;56.30
15413;DHT22;7805;49.554;7.632;2022-08-19T14:09:57;31.00;55.10
15413;DHT22;7805;49.554;7.632;2022-08-19T14:12:23;31.20;55.50
15413;DHT22;7805;49.554;7.632;2022-08-19T14:14:49;31.40;55.00
15413;DHT22;7805;49.554;7.632;2022-08-19T14:17:15;31.80;54.70
15413;DHT22;7805;49.554;7.632;2022-08-19T14:19:41;31.70;53.40
15413;DHT22;7805;49.554;7.632;2022-08-19T14:22:07;31.70;54.20
15413;DHT22;7805;49.554;7.632;2022-08-19T14:24:33;31.90;54.40
15413;DHT22;7805;49.554;7.632;2022-08-19T14:26:58;32.30;54.40
15413;DHT22;7805;49.554;7.632;2022-08-19T14:29:25;32.70;53.90
15413;DHT22;7805;49.554;7.632;2022-08-19T14:31:52;32.60;54.10
15413;DHT22;7805;49.554;7.632;2022-08-19T14:34:18;33.00;53.80
15413;DHT22;7805;49.554;7.632;2022-08-19T14:36:43;33.30;53.30
15413;DHT22;7805;49.554;7.632;2022-08-19T14:39:10;33.50;52.50
15413;DHT22;7805;49.554;7.632;2022-08-19T14:41:40;33.50;52.50
15413;DHT22;7805;49.554;7.632;2022-08-19T14:44:05;33.20;50.90
15413;DHT22;7805;49.554;7.632;2022-08-19T14:46:31;33.00;51.80
15413;DHT22;7805;49.554;7.632;2022-08-19T14:48:57;32.80;51.40
15413;DHT22;7805;49.554;7.632;2022-08-19T14:51:24;32.80;51.30
15413;DHT22;7805;49.554;7.632;2022-08-19T14:53:52;32.90;51.20
15413;DHT22;7805;49.554;7.632;2022-08-19T14:56:21;33.20;51.50
15413;DHT22;7805;49.554;7.632;2022-08-19T14:58:47;33.40;51.10
15413;DHT22;7805;49.554;7.632;2022-08-19T15:01:16;33.60;51.40
15413;DHT22;7805;49.554;7.632;2022-08-19T15:03:42;34.00;51.50
15413;DHT22;7805;49.554;7.632;2022-08-19T15:06:08;34.10;50.40
15413;DHT22;7805;49.554;7.632;2022-08-19T15:08:35;34.00;50.40
15413;DHT22;7805;49.554;7.632;2022-08-19T15:11:02;33.60;50.30
15413;DHT22;7805;49.554;7.632;2022-08-19T15:13:29;33.10;50.70
15413;DHT22;7805;49.554;7.632;2022-08-19T15:15:55;32.90;51.80
15413;DHT22;7805;49.554;7.632;2022-08-19T15:18:22;33.00;52.30
15413;DHT22;7805;49.554;7.632;2022-08-19T15:20:48;32.70;52.30
15413;DHT22;7805;49.554;7.632;2022-08-19T15:23:16;32.40;52.90
15413;DHT22;7805;49.554;7.632;2022-08-19T15:25:42;32.20;52.70
15413;DHT22;7805;49.554;7.632;2022-08-19T15:28:08;31.80;52.80
15413;DHT22;7805;49.554;7.632;2022-08-19T15:30:37;31.50;53.20
15413;DHT22;7805;49.554;7.632;2022-08-19T15:33:03;31.30;53.40
15413;DHT22;7805;49.554;7.632;2022-08-19T15:35:29;30.90;53.90
15413;DHT22;7805;49.554;7.632;2022-08-19T15:37:55;30.80;54.30
15413;DHT22;7805;49.554;7.632;2022-08-19T15:40:23;30.90;54.40
15413;DHT22;7805;49.554;7.632;2022-08-19T15:42:49;30.90;54.30
15413;DHT22;7805;49.554;7.632;2022-08-19T15:45:19;30.70;53.80
15413;DHT22;7805;49.554;7.632;2022-08-19T15:47:45;30.60;53.40
15413;DHT22;7805;49.554;7.632;2022-08-19T15:50:16;30.40;53.40
15413;DHT22;7805;49.554;7.632;2022-08-19T15:53:04;30.50;53.80
15413;DHT22;7805;49.554;7.632;2022-08-19T15:55:32;31.00;53.50
15413;DHT22;7805;49.554;7.632;2022-08-19T15:57:59;30.90;52.70